Time;durP1;ratioP1;P1;durP2;ratioP2;P2;SDS_P1;SDS_P2;PMS_P1;PMS_P2;Temp;Humidity;BMP_temperature;BMP_pressure;BME280_temperature;BME280_humidity;BME280_pressure;Samples;Min_cycle;Max_cycle;Signal;HPM_P1;HPM_P2
2023/04/23 00:01:26;;;;;;;190.77;23.63;;;9.10;99.90;;;;;;5077266;28;20047;-79
2023/04/23 00:03:56;;;;;;;150.90;18.38;;;9.00;99.90;;;;;;5060047;28;20071;-80
2023/04/23 00:06:22;;;;;;;186.77;19.88;;;9.00;99.90;;;;;;5077064;28;20052;-79
2023/04/23 00:08:49;;;;;;;218.75;24.60;;;9.00;99.90;;;;;;5059972;28;20489;-79
2023/04/23 00:11:15;;;;;;;183.63;20.77;;;8.90;99.90;;;;;;5076896;28;20063;-80
2023/04/23 00:13:41;;;;;;;193.27;20.98;;;8.90;99.90;;;;;;5077277;28;20039;-80
2023/04/23 00:16:09;;;;;;;126.35;18.83;;;8.80;99.90;;;;;;5077994;28;20411;-80
2023/04/23 00:18:35;;;;;;;118.68;17.08;;;8.80;99.90;;;;;;5060441;28;20040;-80
2023/04/23 00:21:01;;;;;;;137.40;19.33;;;8.80;99.90;;;;;;5076774;28;20111;-79
2023/04/23 00:23:27;;;;;;;155.18;19.33;;;8.80;99.90;;;;;;5076152;28;20036;-79
2023/04/23 00:25:53;;;;;;;145.77;16.88;;;8.70;99.90;;;;;;5076586;28;20457;-79
2023/04/23 00:28:19;;;;;;;112.23;16.03;;;8.70;99.90;;;;;;5076663;28;20036;-79
2023/04/23 00:30:45;;;;;;;150.93;19.67;;;8.70;99.90;;;;;;5076160;28;20052;-79
2023/04/23 00:33:11;;;;;;;172.70;20.42;;;8.60;99.90;;;;;;5059551;28;20032;-79
2023/04/23 00:35:37;;;;;;;186.65;22.10;;;8.60;99.90;;;;;;5075918;28;20145;-79
2023/04/23 00:38:02;;;;;;;133.27;20.13;;;8.50;99.90;;;;;;5075903;28;20040;-79
2023/04/23 00:40:28;;;;;;;134.27;20.80;;;8.60;99.90;;;;;;5075676;28;20063;-79
2023/04/23 00:42:55;;;;;;;114.40;17.53;;;8.60;99.90;;;;;;5059083;28;20050;-79
2023/04/23 00:45:21;;;;;;;100.70;18.08;;;8.60;99.90;;;;;;5042677;28;20051;-79
2023/04/23 00:47:48;;;;;;;120.40;18.25;;;8.60;99.90;;;;;;5075924;28;20036;-79
2023/04/23 00:50:14;;;;;;;167.73;20.23;;;8.60;99.90;;;;;;5076476;28;20048;-80
2023/04/23 00:52:39;;;;;;;108.78;18.70;;;8.60;99.90;;;;;;5076532;28;20047;-79
2023/04/23 00:55:07;;;;;;;136.25;17.88;;;8.60;99.90;;;;;;5060293;28;20508;-79
2023/04/23 00:57:36;;;;;;;77.18;16.60;;;8.60;99.90;;;;;;5076494;28;20036;-79
2023/04/23 01:00:04;;;;;;;93.45;18.88;;;8.60;99.90;;;;;;5043443;28;20078;-80
2023/04/23 01:02:31;;;;;;;89.38;18.05;;;8.80;99.90;;;;;;5075946;28;20048;-79
2023/04/23 01:04:59;;;;;;;106.03;18.00;;;8.50;99.90;;;;;;5074965;28;20044;-79
2023/04/23 01:07:26;;;;;;;164.45;21.65;;;8.50;99.90;;;;;;5058272;28;20044;-79
2023/04/23 01:09:51;;;;;;;94.13;19.48;;;8.50;99.90;;;;;;5076476;28;20044;-79
2023/04/23 01:12:17;;;;;;;144.73;21.83;;;8.50;99.90;;;;;;5058478;28;20398;-79
2023/04/23 01:14:44;;;;;;;113.88;20.60;;;8.50;99.90;;;;;;5075033;28;20048;-80
2023/04/23 01:17:13;;;;;;;159.00;19.13;;;8.40;99.90;;;;;;5075371;28;20058;-80
2023/04/23 01:19:39;;;;;;;113.80;17.73;;;8.40;99.90;;;;;;5075824;28;20507;-80
2023/04/23 01:22:12;;;;;;;110.15;17.33;;;8.40;99.90;;;;;;5075702;28;20036;-79
2023/04/23 01:24:38;;;;;;;112.85;19.20;;;8.50;99.90;;;;;;5074427;28;20035;-79
2023/04/23 01:27:05;;;;;;;100.65;18.30;;;8.50;99.90;;;;;;5041841;28;20044;-80
2023/04/23 01:29:31;;;;;;;97.10;18.17;;;8.50;99.90;;;;;;5074881;28;20126;-80
2023/04/23 01:31:58;;;;;;;59.28;17.73;;;8.50;99.90;;;;;;5058447;28;20032;-79
2023/04/23 01:34:24;;;;;;;45.88;16.65;;;8.40;99.90;;;;;;5075097;28;20450;-80
2023/04/23 01:36:51;;;;;;;33.30;15.35;;;8.30;99.90;;;;;;5041299;28;20040;-79
2023/04/23 01:39:17;;;;;;;38.55;17.23;;;8.30;99.90;;;;;;5074337;28;20052;-79
2023/04/23 01:41:43;;;;;;;35.30;15.77;;;8.30;99.90;;;;;;5041152;28;20036;-79
2023/04/23 01:44:09;;;;;;;32.90;15.38;;;8.20;99.90;;;;;;5074459;28;20121;-80
2023/04/23 01:46:35;;;;;;;31.42;14.93;;;8.20;99.90;;;;;;5074503;28;20074;-79
2023/04/23 01:49:01;;;;;;;30.20;14.93;;;8.20;99.90;;;;;;5074252;28;20457;-79
2023/04/23 01:51:29;;;;;;;30.75;13.18;;;8.20;99.90;;;;;;5074669;28;20396;-79
2023/04/23 01:53:55;;;;;;;33.35;15.52;;;8.20;99.90;;;;;;5074165;28;20054;-79
2023/04/23 01:56:25;;;;;;;35.05;16.60;;;8.20;99.90;;;;;;5074703;28;20036;-79
2023/04/23 01:58:51;;;;;;;34.60;15.07;;;8.00;99.90;;;;;;5074052;28;20101;-79
2023/04/23 02:01:17;;;;;;;35.47;16.52;;;8.10;99.90;;;;;;5074486;28;20459;-79
2023/04/23 02:03:43;;;;;;;36.08;16.73;;;8.20;99.90;;;;;;5073880;28;20048;-79
2023/04/23 02:06:09;;;;;;;37.33;15.88;;;8.00;99.90;;;;;;5074111;28;20598;-78
2023/04/23 02:08:35;;;;;;;42.13;17.02;;;8.00;99.90;;;;;;5073851;28;20130;-79
2023/04/23 02:11:01;;;;;;;39.22;17.33;;;8.00;99.90;;;;;;5074273;28;20477;-79
2023/04/23 02:13:27;;;;;;;37.05;16.38;;;8.00;99.90;;;;;;5074695;28;20038;-79
2023/04/23 02:15:53;;;;;;;41.40;18.60;;;7.90;99.90;;;;;;5057429;28;20126;-79
2023/04/23 02:18:18;;;;;;;38.53;17.33;;;7.90;99.90;;;;;;5073985;28;20848;-79
2023/04/23 02:20:44;;;;;;;44.73;19.90;;;8.00;99.90;;;;;;5057618;28;20190;-79
2023/04/23 02:23:10;;;;;;;41.97;18.77;;;8.00;99.90;;;;;;5073783;28;20098;-79
2023/04/23 02:25:39;;;;;;;40.15;17.88;;;8.00;99.90;;;;;;5041476;28;20056;-79
2023/04/23 02:28:07;;;;;;;38.13;17.38;;;7.90;99.90;;;;;;5074157;28;20040;-78
2023/04/23 02:30:34;;;;;;;40.20;18.33;;;8.00;99.90;;;;;;5074060;28;20055;-79
2023/04/23 02:33:00;;;;;;;42.78;18.75;;;7.90;99.90;;;;;;5074226;28;20048;-79
2023/04/23 02:35:26;;;;;;;41.00;18.75;;;7.90;99.90;;;;;;5057133;28;20040;-78
2023/04/23 02:37:53;;;;;;;45.90;20.55;;;8.00;99.90;;;;;;5074145;28;20051;-79
2023/04/23 02:40:19;;;;;;;46.95;21.63;;;7.90;99.90;;;;;;5074096;28;20117;-79
2023/04/23 02:42:45;;;;;;;51.95;21.48;;;7.90;99.90;;;;;;5074039;28;20036;-79
2023/04/23 02:45:11;;;;;;;48.83;21.33;;;7.90;99.90;;;;;;5074023;28;20130;-79
2023/04/23 02:47:37;;;;;;;51.55;22.00;;;7.80;99.90;;;;;;5040756;28;20489;-79
2023/04/23 02:50:05;;;;;;;50.40;22.40;;;7.80;99.90;;;;;;5074039;28;20382;-79
2023/04/23 02:52:31;;;;;;;51.97;21.27;;;7.80;99.90;;;;;;5057745;28;20055;-79
2023/04/23 02:54:57;;;;;;;54.10;22.10;;;7.80;99.90;;;;;;5057181;28;20048;-79
2023/04/23 02:57:23;;;;;;;55.53;23.10;;;7.80;99.90;;;;;;5057567;28;20044;-79
2023/04/23 02:59:49;;;;;;;54.30;21.17;;;7.80;99.90;;;;;;5056539;28;20535;-79
2023/04/23 03:02:15;;;;;;;58.53;22.98;;;7.80;99.90;;;;;;5056779;28;20044;-79
2023/04/23 03:04:41;;;;;;;66.43;24.52;;;7.80;99.90;;;;;;5073602;28;20043;-79
2023/04/23 03:07:07;;;;;;;95.40;27.90;;;7.90;99.90;;;;;;5073760;28;20032;-79
2023/04/23 03:09:32;;;;;;;56.22;21.27;;;7.80;99.90;;;;;;5056708;28;20109;-79
2023/04/23 03:11:58;;;;;;;64.28;24.15;;;7.90;99.90;;;;;;5073260;28;20115;-79
2023/04/23 03:14:24;;;;;;;95.55;23.77;;;7.80;99.90;;;;;;5073918;28;20098;-79
2023/04/23 03:16:50;;;;;;;110.53;25.45;;;7.80;99.90;;;;;;5074171;28;20512;-79
2023/04/23 03:19:16;;;;;;;144.63;27.70;;;7.80;99.90;;;;;;5074268;28;20432;-78
2023/04/23 03:21:41;;;;;;;83.63;24.65;;;7.90;99.90;;;;;;5074382;28;20443;-79
2023/04/23 03:24:07;;;;;;;67.03;21.73;;;7.80;99.90;;;;;;5073747;28;20036;-80
2023/04/23 03:26:33;;;;;;;133.48;28.25;;;7.90;99.90;;;;;;5074214;28;20507;-79
2023/04/23 03:28:59;;;;;;;131.93;26.55;;;7.90;99.90;;;;;;5073087;28;20040;-79
2023/04/23 03:31:25;;;;;;;188.93;29.13;;;7.80;99.90;;;;;;5056823;28;20559;-79
2023/04/23 03:33:50;;;;;;;185.73;31.83;;;7.70;99.90;;;;;;5039613;28;20044;-79
2023/04/23 03:36:16;;;;;;;193.93;31.15;;;7.70;99.90;;;;;;5060179;28;20115;-80
2023/04/23 03:38:42;;;;;;;185.18;31.88;;;7.70;99.90;;;;;;5060575;28;20097;-79
2023/04/23 03:41:08;;;;;;;193.43;29.08;;;7.60;99.90;;;;;;5077500;28;20436;-80
2023/04/23 03:43:34;;;;;;;187.98;29.70;;;7.70;99.90;;;;;;5077704;28;20062;-80
2023/04/23 03:45:59;;;;;;;116.20;22.65;;;7.70;99.90;;;;;;5078131;28;20035;-79
2023/04/23 03:48:25;;;;;;;244.88;35.00;;;7.70;99.90;;;;;;5060616;28;20114;-80
2023/04/23 03:50:51;;;;;;;216.35;34.10;;;7.70;99.90;;;;;;5044385;28;20047;-79
2023/04/23 03:53:17;;;;;;;224.10;33.97;;;7.70;99.90;;;;;;5060688;28;20462;-79
2023/04/23 03:55:43;;;;;;;148.70;26.00;;;7.70;99.90;;;;;;5077713;28;20278;-79
2023/04/23 03:58:09;;;;;;;170.10;32.42;;;7.70;99.90;;;;;;5044211;28;20302;-79
2023/04/23 04:00:35;;;;;;;168.20;33.35;;;7.70;99.90;;;;;;5060915;28;20040;-79
2023/04/23 04:03:01;;;;;;;205.00;33.72;;;7.70;99.90;;;;;;5061234;28;20036;-79
2023/04/23 04:05:27;;;;;;;247.05;37.90;;;7.80;99.90;;;;;;5079814;28;20397;-79
2023/04/23 04:07:53;;;;;;;;;;;7.80;99.90;;;;;;5078933;28;20051;-79
2023/04/23 04:10:19;;;;;;;269.80;41.03;;;7.80;99.90;;;;;;5076897;28;20389;-79
2023/04/23 04:12:46;;;;;;;176.52;31.63;;;7.80;99.90;;;;;;5061684;28;20036;-79
2023/04/23 04:15:13;;;;;;;179.70;33.83;;;7.80;99.90;;;;;;5050415;28;20079;-79
2023/04/23 04:17:39;;;;;;;166.63;34.75;;;7.80;99.90;;;;;;5066633;28;20044;-79
2023/04/23 04:20:10;;;;;;;182.63;34.83;;;7.80;99.90;;;;;;5083025;28;20050;-79
2023/04/23 04:22:35;;;;;;;136.48;31.52;;;7.80;99.90;;;;;;5085858;28;20047;-79
2023/04/23 04:25:01;;;;;;;205.13;37.78;;;7.80;99.90;;;;;;5066618;28;20046;-79
2023/04/23 04:27:27;;;;;;;141.63;33.80;;;7.80;99.90;;;;;;5082209;28;20064;-78
2023/04/23 04:29:53;;;;;;;170.13;33.53;;;7.90;99.90;;;;;;5082464;28;20051;-79
2023/04/23 04:32:18;;;;;;;189.97;33.40;;;7.90;99.90;;;;;;5084338;28;20771;-79
2023/04/23 04:34:44;;;;;;;124.00;34.53;;;7.90;99.90;;;;;;5081143;28;20040;-78
2023/04/23 04:37:10;;;;;;;101.20;31.77;;;7.90;99.90;;;;;;5083767;28;20463;-79
2023/04/23 04:39:36;;;;;;;105.60;33.47;;;7.90;99.90;;;;;;5080978;28;20286;-79
2023/04/23 04:42:03;;;;;;;97.80;33.55;;;7.90;99.90;;;;;;5060439;28;20051;-79
2023/04/23 04:44:29;;;;;;;99.10;32.35;;;7.90;99.90;;;;;;5075832;28;20095;-79
2023/04/23 04:46:55;;;;;;;98.18;33.13;;;7.90;99.90;;;;;;5078879;28;20040;-79
2023/04/23 04:49:21;;;;;;;81.65;30.17;;;8.00;99.90;;;;;;5079166;28;20044;-79
2023/04/23 04:51:47;;;;;;;77.03;29.30;;;7.90;99.90;;;;;;5060867;28;20502;-79
2023/04/23 04:54:13;;;;;;;79.15;29.08;;;7.90;99.90;;;;;;5075391;28;20274;-79
2023/04/23 04:56:39;;;;;;;75.30;29.08;;;7.90;99.90;;;;;;5075642;28;20048;-79
2023/04/23 04:59:04;;;;;;;73.97;28.63;;;7.90;99.90;;;;;;5060341;28;20040;-79
2023/04/23 05:01:32;;;;;;;78.63;29.10;;;7.90;99.90;;;;;;5079560;28;20046;-79
2023/04/23 05:03:58;;;;;;;71.72;27.90;;;7.90;99.90;;;;;;5078973;28;20043;-79
2023/04/23 05:06:24;;;;;;;61.55;24.85;;;7.90;99.90;;;;;;5078496;28;20110;-79
2023/04/23 05:08:50;;;;;;;67.80;27.17;;;7.90;99.90;;;;;;5028872;28;20044;-79
2023/04/23 05:11:16;;;;;;;65.63;26.83;;;7.90;99.90;;;;;;5077941;28;20092;-79
2023/04/23 05:13:43;;;;;;;71.07;28.80;;;7.80;99.90;;;;;;5079470;28;20059;-80
2023/04/23 05:16:10;;;;;;;77.90;28.30;;;7.80;99.90;;;;;;5062238;28;20086;-79
2023/04/23 05:18:37;;;;;;;66.65;27.23;;;7.90;99.90;;;;;;5075572;28;20090;-79
2023/04/23 05:21:02;;;;;;;;;;;7.90;99.90;;;;;;5076158;28;20077;-80
2023/04/23 05:23:28;;;;;;;70.72;28.70;;;7.90;99.90;;;;;;5075444;28;19915;-79
2023/04/23 05:25:54;;;;;;;70.67;27.40;;;7.90;99.90;;;;;;5058184;28;20055;-79
2023/04/23 05:28:20;;;;;;;69.28;26.63;;;7.90;99.90;;;;;;5058258;28;20644;-79
2023/04/23 05:30:46;;;;;;;65.53;27.13;;;8.00;99.90;;;;;;5074497;28;20047;-79
2023/04/23 05:33:12;;;;;;;68.80;27.30;;;8.00;99.90;;;;;;5074539;28;20459;-78
2023/04/23 05:35:37;;;;;;;66.55;26.40;;;7.90;99.90;;;;;;5074335;28;20361;-79
2023/04/23 05:38:05;;;;;;;70.40;28.10;;;8.00;99.90;;;;;;5041195;28;20044;-80
2023/04/23 05:40:31;;;;;;;68.50;27.05;;;8.00;99.90;;;;;;5074642;28;20321;-79
2023/04/23 05:43:00;;;;;;;66.32;26.20;;;8.00;99.90;;;;;;5074384;28;20072;-79
2023/04/23 05:45:26;;;;;;;68.28;26.98;;;8.00;99.90;;;;;;5074448;28;20479;-79
2023/04/23 05:47:52;;;;;;;67.05;28.02;;;8.00;99.90;;;;;;5057392;28;20043;-78
2023/04/23 05:50:18;;;;;;;69.60;26.70;;;8.00;99.90;;;;;;5074706;28;20405;-79
2023/04/23 05:52:44;;;;;;;74.53;29.48;;;8.10;99.90;;;;;;5057944;28;20089;-79
2023/04/23 05:55:10;;;;;;;81.68;31.02;;;8.10;99.90;;;;;;5074980;28;20409;-79
2023/04/23 05:57:37;;;;;;;71.53;29.13;;;8.20;99.90;;;;;;5073889;28;20047;-80
2023/04/23 06:00:04;;;;;;;73.50;28.67;;;8.20;99.90;;;;;;5057827;28;20047;-80
2023/04/23 06:02:32;;;;;;;80.93;30.13;;;8.20;99.90;;;;;;5074361;28;20047;-79
2023/04/23 06:04:58;;;;;;;78.30;30.23;;;8.30;99.90;;;;;;5074548;28;20439;-79
2023/04/23 06:07:24;;;;;;;74.70;29.33;;;8.40;99.90;;;;;;5074742;28;20189;-79
2023/04/23 06:09:49;;;;;;;87.80;29.65;;;8.40;99.90;;;;;;5074074;28;20048;-79
2023/04/23 06:12:15;;;;;;;82.50;31.20;;;8.50;99.90;;;;;;5074755;28;20035;-79
2023/04/23 06:14:41;;;;;;;87.55;31.65;;;8.50;99.90;;;;;;5075185;28;20039;-79
2023/04/23 06:17:06;;;;;;;85.30;33.37;;;8.60;99.90;;;;;;5074349;28;20039;-79
2023/04/23 06:19:32;;;;;;;77.60;30.03;;;8.60;99.90;;;;;;5057934;28;20086;-79
2023/04/23 06:21:58;;;;;;;77.40;29.50;;;8.70;99.90;;;;;;5058117;28;20339;-79
2023/04/23 06:24:24;;;;;;;78.60;30.10;;;8.80;99.90;;;;;;5074876;28;20501;-78
2023/04/23 06:26:50;;;;;;;74.93;29.05;;;9.10;99.90;;;;;;5075303;28;20036;-79
2023/04/23 06:29:15;;;;;;;52.53;26.45;;;9.30;99.90;;;;;;5075391;28;20044;-78
2023/04/23 06:31:41;;;;;;;69.97;29.10;;;9.60;99.90;;;;;;5059199;28;20036;-80
2023/04/23 06:34:07;;;;;;;82.40;31.77;;;9.80;99.90;;;;;;5074979;28;20036;-79
2023/04/23 06:36:32;;;;;;;69.55;28.92;;;9.90;99.90;;;;;;5058308;28;20130;-78
2023/04/23 06:38:58;;;;;;;65.13;27.13;;;10.00;99.90;;;;;;5058007;28;20047;-80
2023/04/23 06:41:24;;;;;;;51.92;24.17;;;10.00;99.90;;;;;;5075210;28;20040;-80
2023/04/23 06:43:50;;;;;;;57.70;25.83;;;10.00;99.90;;;;;;5057820;28;20501;-79
2023/04/23 06:46:15;;;;;;;55.67;24.27;;;10.30;99.90;;;;;;5059219;28;20520;-80
2023/04/23 06:48:41;;;;;;;56.63;24.13;;;10.40;99.90;;;;;;5075802;28;20036;-79
2023/04/23 06:51:07;;;;;;;60.70;27.08;;;10.50;99.90;;;;;;5076061;28;20454;-80
2023/04/23 06:53:33;;;;;;;58.38;26.02;;;10.50;99.90;;;;;;5074894;28;20084;-79
2023/04/23 06:55:58;;;;;;;57.63;25.85;;;10.40;99.90;;;;;;5074289;28;20070;-80
2023/04/23 06:58:29;;;;;;;57.65;25.88;;;10.40;99.90;;;;;;5075344;28;20036;-80
2023/04/23 07:00:58;;;;;;;53.25;24.88;;;10.70;99.90;;;;;;5081581;28;20054;-79
2023/04/23 07:03:26;;;;;;;59.15;24.98;;;11.20;99.90;;;;;;5085036;28;20501;-80
2023/04/23 07:05:52;;;;;;;48.95;22.05;;;11.80;99.90;;;;;;5087025;28;20040;-80
2023/04/23 07:08:19;;;;;;;;;;;12.20;99.90;;;;;;5069801;28;20048;-79
2023/04/23 07:10:45;;;;;;;50.08;23.10;;;12.50;99.90;;;;;;5072330;28;19919;-80
2023/04/23 07:13:11;;;;;;;41.97;19.33;;;12.80;99.90;;;;;;5085106;28;20090;-81
2023/04/23 07:15:37;;;;;;;41.53;19.42;;;13.00;99.90;;;;;;5051407;28;20047;-80
2023/04/23 07:18:03;;;;;;;44.85;20.45;;;13.30;99.90;;;;;;5065096;28;20044;-80
2023/04/23 07:20:29;;;;;;;46.83;21.90;;;13.40;99.90;;;;;;5081778;28;20123;-79
2023/04/23 07:22:56;;;;;;;38.92;20.67;;;13.50;99.90;;;;;;5082344;28;20072;-80
2023/04/23 07:25:23;;;;;;;40.22;19.58;;;13.60;99.90;;;;;;5083082;28;20051;-80
2023/04/23 07:27:49;;;;;;;39.22;20.10;;;13.80;99.90;;;;;;5088644;28;20522;-80
2023/04/23 07:30:15;;;;;;;40.33;21.10;;;14.00;99.90;;;;;;5072555;28;20066;-81
2023/04/23 07:32:42;;;;;;;34.25;17.90;;;14.00;99.90;;;;;;5090940;28;20055;-80
2023/04/23 07:35:09;;;;;;;40.65;20.00;;;14.10;99.90;;;;;;5070943;28;20043;-79
2023/04/23 07:37:36;;;;;;;37.28;19.67;;;14.40;99.90;;;;;;5067530;28;20465;-79
2023/04/23 07:40:04;;;;;;;39.17;19.40;;;14.40;99.90;;;;;;5071079;28;20104;-79
2023/04/23 07:42:30;;;;;;;35.83;20.05;;;14.20;99.90;;;;;;5087314;28;20044;-80
2023/04/23 07:44:56;;;;;;;35.28;18.42;;;14.00;99.90;;;;;;5087670;28;20044;-80
2023/04/23 07:47:21;;;;;;;35.47;18.25;;;13.90;99.90;;;;;;5089873;28;20055;-80
2023/04/23 07:49:47;;;;;;;37.92;19.55;;;14.10;99.90;;;;;;5089976;28;20055;-80
2023/04/23 07:52:14;;;;;;;31.27;17.52;;;14.20;99.90;;;;;;5090181;28;20047;-80
2023/04/23 07:54:40;;;;;;;32.58;17.38;;;14.20;99.90;;;;;;5057212;28;20043;-80
2023/04/23 07:57:05;;;;;;;34.97;18.50;;;14.50;99.90;;;;;;5089107;28;20036;-80
2023/04/23 07:59:31;;;;;;;34.10;17.65;;;14.90;99.90;;;;;;5074726;28;20048;-80
2023/04/23 08:01:57;;;;;;;36.45;20.02;;;15.20;99.90;;;;;;5072529;28;20040;-80
2023/04/23 08:04:22;;;;;;;34.10;17.13;;;15.20;99.90;;;;;;5088998;28;20086;-82
2023/04/23 08:06:48;;;;;;;33.78;17.98;;;15.20;99.90;;;;;;5055916;28;20044;-79
2023/04/23 08:09:14;;;;;;;31.98;19.02;;;15.60;99.90;;;;;;5082691;28;20463;-80
2023/04/23 08:11:40;;;;;;;28.70;15.05;;;15.90;99.90;;;;;;5084591;28;20127;-80
2023/04/23 08:14:06;;;;;;;;;;;16.40;99.90;;;;;;5085856;28;20040;-80
2023/04/23 08:16:31;;;;;;;30.33;18.33;;;16.60;99.90;;;;;;5068782;28;20022;-81
2023/04/23 08:18:57;;;;;;;29.42;16.40;;;16.70;99.90;;;;;;5063669;28;20045;-80
2023/04/23 08:21:25;;;;;;;25.77;14.48;;;16.70;99.90;;;;;;5062868;28;20037;-81
2023/04/23 08:23:50;;;;;;;26.83;15.55;;;17.00;99.90;;;;;;5079730;28;20047;-81
2023/04/23 08:26:16;;;;;;;24.30;15.43;;;17.20;99.90;;;;;;5062525;28;20486;-80
2023/04/23 08:28:41;;;;;;;24.00;13.48;;;17.00;99.90;;;;;;5061658;28;20413;-81
2023/04/23 08:31:08;;;;;;;25.33;15.38;;;16.90;99.90;;;;;;5080327;28;20405;-80
2023/04/23 08:33:33;;;;;;;29.15;16.58;;;17.00;99.90;;;;;;5069762;28;20068;-80
2023/04/23 08:35:59;;;;;;;30.63;15.75;;;17.10;99.90;;;;;;5083726;28;20116;-80
2023/04/23 08:38:25;;;;;;;27.10;16.58;;;17.40;99.90;;;;;;5083098;28;20043;-81
2023/04/23 08:40:54;;;;;;;;;;;17.70;99.90;;;;;;5066213;28;20045;-80
2023/04/23 08:43:23;;;;;;;26.15;15.63;;;18.10;99.90;;;;;;5064973;28;19920;-81
2023/04/23 08:45:48;;;;;;;25.48;15.82;;;18.30;99.90;;;;;;5066434;28;20056;-80
2023/04/23 08:48:15;;;;;;;25.05;15.20;;;18.40;99.90;;;;;;5067803;28;20040;-81
2023/04/23 08:50:43;;;;;;;20.17;11.85;;;18.70;99.90;;;;;;5065206;28;20083;-80
2023/04/23 08:53:09;;;;;;;21.58;13.93;;;18.90;99.90;;;;;;5064759;28;20070;-81
2023/04/23 08:55:38;;;;;;;;;;;19.10;99.90;;;;;;5080313;28;20048;-80
2023/04/23 08:58:05;;;;;;;22.95;13.95;;;19.10;99.90;;;;;;5049405;28;20357;-81
2023/04/23 09:00:33;;;;;;;20.55;12.77;;;19.40;99.90;;;;;;5066740;28;20115;-81
2023/04/23 09:02:59;;;;;;;19.52;13.27;;;19.50;99.90;;;;;;5067847;28;20051;-80
2023/04/23 09:05:26;;;;;;;;;;;19.60;99.90;;;;;;5083197;28;20041;-79
2023/04/23 09:07:52;;;;;;;20.65;12.57;;;19.60;99.90;;;;;;5081575;28;20015;-80
2023/04/23 09:10:18;;;;;;;23.00;14.88;;;19.80;99.90;;;;;;5084532;28;20459;-80
2023/04/23 09:12:45;;;;;;;20.85;13.65;;;19.80;99.90;;;;;;5086286;28;20173;-81
2023/04/23 09:15:12;;;;;;;19.20;13.00;;;19.80;99.90;;;;;;5053965;28;20040;-80
2023/04/23 09:17:40;;;;;;;19.08;12.38;;;20.10;99.90;;;;;;5087791;28;20500;-82
2023/04/23 09:20:10;;;;;;;17.88;10.75;;;20.50;99.90;;;;;;5070952;28;20047;-80
2023/04/23 09:22:39;;;;;;;16.88;11.27;;;20.50;99.90;;;;;;5069396;28;20108;-81
2023/04/23 09:25:07;;;;;;;19.38;11.95;;;20.60;99.90;;;;;;5083752;28;20051;-81
2023/04/23 09:27:32;;;;;;;19.80;10.70;;;20.80;99.90;;;;;;5068657;28;20059;-80
2023/04/23 09:30:03;;;;;;;17.77;11.50;;;20.90;99.90;;;;;;5068548;28;20048;-81
2023/04/23 09:32:34;;;;;;;14.77;10.13;;;20.70;99.90;;;;;;5068914;28;20105;-80
2023/04/23 09:35:05;;;;;;;16.90;11.15;;;20.70;99.90;;;;;;5082560;28;20044;-81
2023/04/23 09:37:32;;;;;;;15.30;10.10;;;20.60;99.90;;;;;;5081965;28;20094;-81
2023/04/23 09:39:59;;;;;;;17.10;9.35;;;20.30;99.90;;;;;;5065667;28;20444;-81
2023/04/23 09:42:27;;;;;;;14.43;9.48;;;20.10;99.90;;;;;;5082617;28;20044;-82
2023/04/23 09:45:08;;;;;;;13.48;8.27;;;20.20;99.90;;;;;;5064586;28;20044;-81
2023/04/23 09:47:36;;;;;;;13.30;8.15;;;20.20;99.90;;;;;;5078869;28;20055;-82
2023/04/23 09:50:02;;;;;;;13.85;8.35;;;19.90;99.90;;;;;;5080951;28;20051;-81
2023/04/23 09:52:31;;;;;;;13.38;8.32;;;20.00;99.90;;;;;;5083225;28;20056;-81
2023/04/23 09:54:58;;;;;;;14.20;8.13;;;19.80;99.90;;;;;;5080853;28;20062;-81
2023/04/23 09:57:27;;;;;;;14.85;7.75;;;19.80;99.90;;;;;;5045675;28;20045;-81
2023/04/23 09:59:56;;;;;;;13.57;8.02;;;19.80;99.90;;;;;;5060332;28;20413;-81
2023/04/23 10:02:26;;;;;;;13.57;8.05;;;19.70;99.90;;;;;;5061917;28;20123;-82
2023/04/23 10:04:52;;;;;;;12.68;6.80;;;19.90;99.90;;;;;;5079343;28;20457;-81
2023/04/23 10:07:18;;;;;;;10.27;5.43;;;19.80;99.90;;;;;;5076524;28;20056;-82
2023/04/23 10:09:44;;;;;;;11.02;5.55;;;19.90;99.90;;;;;;5077603;28;20118;-81
2023/04/23 10:12:12;;;;;;;11.27;5.50;;;20.00;99.90;;;;;;5061060;28;20044;-81
2023/04/23 10:14:39;;;;;;;9.70;3.80;;;20.30;99.90;;;;;;5079053;28;20082;-81
2023/04/23 10:17:06;;;;;;;8.35;4.18;;;20.80;99.90;;;;;;5079087;28;20040;-82
2023/04/23 10:19:33;;;;;;;7.80;3.65;;;21.20;99.90;;;;;;5077577;28;20040;-81
2023/04/23 10:22:06;;;;;;;10.32;4.80;;;21.20;99.90;;;;;;5062094;28;20036;-82
2023/04/23 10:24:34;;;;;;;9.57;4.60;;;21.30;99.90;;;;;;5060642;28;20037;-81
2023/04/23 10:27:03;;;;;;;10.50;5.35;;;21.50;99.90;;;;;;5079508;28;20432;-81
2023/04/23 10:29:34;;;;;;;10.02;4.38;;;21.50;99.90;;;;;;5080023;28;20658;-81
2023/04/23 10:32:01;;;;;;;8.13;3.85;;;21.30;99.90;;;;;;5078856;28;20485;-82
2023/04/23 10:34:29;;;;;;;7.68;3.10;;;20.90;99.90;;;;;;5076570;28;20071;-81
2023/04/23 10:36:58;;;;;;;8.02;3.65;;;20.50;99.90;;;;;;5058959;28;20045;-81
2023/04/23 10:39:26;;;;;;;6.10;2.95;;;20.40;99.90;;;;;;5062353;28;20053;-81
2023/04/23 10:41:54;;;;;;;5.80;2.60;;;20.80;99.90;;;;;;5079414;28;20101;-81
2023/04/23 10:44:20;;;;;;;5.13;2.30;;;21.10;99.90;;;;;;5049018;28;20070;-80
2023/04/23 10:46:57;;;;;;;6.47;2.60;;;21.10;99.90;;;;;;5065602;28;20041;-81
2023/04/23 10:49:24;;;;;;;9.93;3.00;;;20.80;99.90;;;;;;5079292;28;20036;-81
2023/04/23 10:52:15;;;;;;;9.35;2.80;;;20.40;99.90;;;;;;5063741;28;20442;-81
2023/04/23 10:54:42;;;;;;;7.22;2.80;;;20.10;99.90;;;;;;5068913;28;20055;-81
2023/04/23 10:57:09;;;;;;;6.53;2.13;;;20.40;99.90;;;;;;5081067;28;20396;-81
2023/04/23 10:59:38;;;;;;;6.47;2.33;;;20.90;99.90;;;;;;5063464;28;20047;-81
2023/04/23 11:02:10;;;;;;;7.00;3.22;;;21.40;99.90;;;;;;5081312;28;20053;-82
2023/04/23 11:05:05;;;;;;;5.10;2.00;;;21.70;99.90;;;;;;5062259;28;20048;-80
2023/04/23 11:07:32;;;;;;;5.07;2.00;;;22.00;99.90;;;;;;5078320;28;20249;-81
2023/04/23 11:09:59;;;;;;;6.80;2.40;;;21.80;99.90;;;;;;5081581;28;20056;-81
2023/04/23 11:12:29;;;;;;;6.47;2.05;;;21.90;99.90;;;;;;5082113;28;20097;-81
2023/04/23 11:14:58;;;;;;;4.53;1.85;;;22.20;99.90;;;;;;5081835;28;20045;-80
2023/04/23 11:17:46;;;;;;;4.72;1.58;;;22.30;99.90;;;;;;5080952;28;20493;-82
2023/04/23 11:20:15;;;;;;;3.70;1.63;;;22.10;99.90;;;;;;5079553;28;20048;-82
2023/04/23 11:22:46;;;;;;;5.18;2.00;;;22.20;99.90;;;;;;5062980;28;20078;-81
2023/04/23 11:25:22;;;;;;;5.22;2.03;;;22.20;99.90;;;;;;5061006;28;20044;-81
2023/04/23 11:27:49;;;;;;;6.78;2.20;;;22.00;99.90;;;;;;5078723;28;20079;-81
2023/04/23 11:30:21;;;;;;;4.93;1.83;;;22.00;99.90;;;;;;5061103;28;20048;-81
2023/04/23 11:32:48;;;;;;;5.93;1.80;;;22.20;99.90;;;;;;5078042;28;20091;-81
2023/04/23 11:35:15;;;;;;;5.35;1.73;;;22.30;99.90;;;;;;5075057;28;20121;-81
2023/04/23 11:37:44;;;;;;;5.82;1.38;;;22.30;99.90;;;;;;5075228;28;20404;-81
2023/04/23 11:40:17;;;;;;;3.38;1.23;;;22.30;99.90;;;;;;5058559;28;20079;-81
2023/04/23 11:42:46;;;;;;;5.97;2.22;;;22.40;99.90;;;;;;5073925;28;20055;-81
2023/04/23 11:45:20;;;;;;;4.72;2.05;;;22.70;99.90;;;;;;5057977;28;20063;-82
2023/04/23 11:47:54;;;;;;;4.57;1.83;;;22.40;99.80;;;;;;5074477;28;20044;-81
2023/04/23 11:50:28;;;;;;;3.38;1.77;;;22.00;99.90;;;;;;5056416;28;20032;-81
2023/04/23 11:52:55;;;;;;;5.60;2.10;;;21.60;99.90;;;;;;5073759;28;20048;-81
2023/04/23 11:55:22;;;;;;;4.72;1.80;;;21.40;99.90;;;;;;5072019;28;20144;-82
2023/04/23 11:57:49;;;;;;;7.70;2.00;;;21.30;99.90;;;;;;5073800;28;20123;-81
2023/04/23 12:00:18;;;;;;;3.45;1.52;;;21.20;99.90;;;;;;5074497;28;20047;-81
2023/04/23 12:02:53;;;;;;;6.45;1.70;;;21.10;99.90;;;;;;5057864;28;20497;-82
2023/04/23 12:05:36;;;;;;;4.18;1.75;;;21.10;99.90;;;;;;5073314;28;20052;-82
2023/04/23 12:08:21;;;;;;;3.65;1.58;;;21.10;99.90;;;;;;5056069;28;20073;-82
2023/04/23 12:10:51;;;;;;;5.60;1.85;;;21.60;99.90;;;;;;5073114;28;20048;-82
2023/04/23 12:13:26;;;;;;;4.70;1.23;;;21.90;99.90;;;;;;5058096;28;20106;-82
2023/04/23 12:15:55;;;;;;;3.35;0.88;;;22.30;99.50;;;;;;5074809;28;20036;-82
2023/04/23 12:18:41;;;;;;;2.40;1.35;;;22.30;98.90;;;;;;5057164;28;20047;-82
2023/04/23 12:21:08;;;;;;;4.15;1.40;;;22.00;99.50;;;;;;5057535;28;20040;-82
2023/04/23 12:23:38;;;;;;;8.07;1.20;;;21.90;99.60;;;;;;5073284;28;20405;-82
2023/04/23 12:26:13;;;;;;;3.42;1.10;;;21.70;99.50;;;;;;5073434;28;20051;-82
2023/04/23 12:28:48;;;;;;;4.95;1.02;;;21.60;99.80;;;;;;5072801;28;20049;-82
2023/04/23 12:31:19;;;;;;;2.65;0.80;;;21.50;99.90;;;;;;5056268;28;20044;-82
2023/04/23 12:33:45;;;;;;;3.92;1.00;;;21.50;99.80;;;;;;5056571;28;20550;-81
2023/04/23 12:36:15;;;;;;;4.43;1.20;;;21.30;99.40;;;;;;5072141;28;20036;-81